sensor_id;sensor_type;location;lat;lon;timestamp;temperature;humidity
3055;DHT22;1537;52.018;8.542;2023-06-22T00:01:30;21.50;99.90
3055;DHT22;1537;52.018;8.542;2023-06-22T00:04:55;21.50;99.90
3055;DHT22;1537;52.018;8.542;2023-06-22T00:08:19;21.40;99.90
3055;DHT22;1537;52.018;8.542;2023-06-22T00:11:44;21.40;99.90
3055;DHT22;1537;52.018;8.542;2023-06-22T00:15:08;21.40;99.90
3055;DHT22;1537;52.018;8.542;2023-06-22T00:18:32;21.30;99.90
3055;DHT22;1537;52.018;8.542;2023-06-22T00:21:57;21.30;99.90
3055;DHT22;1537;52.018;8.542;2023-06-22T00:25:23;21.30;99.90
3055;DHT22;1537;52.018;8.542;2023-06-22T00:28:48;21.20;99.90
3055;DHT22;1537;52.018;8.542;2023-06-22T00:32:12;21.20;99.90
3055;DHT22;1537;52.018;8.542;2023-06-22T00:35:37;21.20;99.90
3055;DHT22;1537;52.018;8.542;2023-06-22T00:39:05;21.00;99.90
3055;DHT22;1537;52.018;8.542;2023-06-22T00:42:30;21.10;99.90
3055;DHT22;1537;52.018;8.542;2023-06-22T00:45:55;21.10;99.90
3055;DHT22;1537;52.018;8.542;2023-06-22T00:49:20;21.10;99.90
3055;DHT22;1537;52.018;8.542;2023-06-22T00:52:46;21.10;99.90
3055;DHT22;1537;52.018;8.542;2023-06-22T00:56:14;21.00;99.90
3055;DHT22;1537;52.018;8.542;2023-06-22T00:59:42;20.90;99.90
3055;DHT22;1537;52.018;8.542;2023-06-22T01:03:07;20.90;99.90
3055;DHT22;1537;52.018;8.542;2023-06-22T01:06:38;20.90;99.90
3055;DHT22;1537;52.018;8.542;2023-06-22T01:10:08;20.90;99.90
3055;DHT22;1537;52.018;8.542;2023-06-22T01:13:41;20.80;99.90
3055;DHT22;1537;52.018;8.542;2023-06-22T01:17:08;20.80;99.90
3055;DHT22;1537;52.018;8.542;2023-06-22T01:20:34;20.80;99.90
3055;DHT22;1537;52.018;8.542;2023-06-22T01:24:11;20.60;99.90
3055;DHT22;1537;52.018;8.542;2023-06-22T01:27:59;20.60;99.90
3055;DHT22;1537;52.018;8.542;2023-06-22T01:31:28;20.40;99.90
3055;DHT22;1537;52.018;8.542;2023-06-22T01:34:54;20.50;99.90
3055;DHT22;1537;52.018;8.542;2023-06-22T01:38:18;20.50;99.90
3055;DHT22;1537;52.018;8.542;2023-06-22T01:41:42;20.50;99.90
3055;DHT22;1537;52.018;8.542;2023-06-22T01:45:07;20.50;99.90
3055;DHT22;1537;52.018;8.542;2023-06-22T01:48:34;20.30;99.90
3055;DHT22;1537;52.018;8.542;2023-06-22T01:51:59;20.30;99.90
3055;DHT22;1537;52.018;8.542;2023-06-22T01:55:24;20.40;99.90
3055;DHT22;1537;52.018;8.542;2023-06-22T01:58:53;20.40;99.90
3055;DHT22;1537;52.018;8.542;2023-06-22T02:02:20;20.30;99.90
3055;DHT22;1537;52.018;8.542;2023-06-22T02:05:56;20.30;99.90
3055;DHT22;1537;52.018;8.542;2023-06-22T02:09:23;20.30;99.90
3055;DHT22;1537;52.018;8.542;2023-06-22T02:12:47;20.30;99.90
3055;DHT22;1537;52.018;8.542;2023-06-22T02:16:13;20.30;99.90
3055;DHT22;1537;52.018;8.542;2023-06-22T02:19:41;20.30;99.90
3055;DHT22;1537;52.018;8.542;2023-06-22T02:23:07;20.20;99.90
3055;DHT22;1537;52.018;8.542;2023-06-22T02:26:31;20.10;99.90
3055;DHT22;1537;52.018;8.542;2023-06-22T02:29:57;20.10;99.90
3055;DHT22;1537;52.018;8.542;2023-06-22T02:33:23;19.90;99.90
3055;DHT22;1537;52.018;8.542;2023-06-22T02:36:47;19.90;99.90
3055;DHT22;1537;52.018;8.542;2023-06-22T02:40:15;19.90;99.90
3055;DHT22;1537;52.018;8.542;2023-06-22T02:43:40;19.90;99.90
3055;DHT22;1537;52.018;8.542;2023-06-22T02:47:04;19.90;99.90
3055;DHT22;1537;52.018;8.542;2023-06-22T02:50:29;19.90;99.90
3055;DHT22;1537;52.018;8.542;2023-06-22T02:53:56;19.80;99.90
3055;DHT22;1537;52.018;8.542;2023-06-22T02:57:23;19.80;99.90
3055;DHT22;1537;52.018;8.542;2023-06-22T03:00:48;19.90;99.90
3055;DHT22;1537;52.018;8.542;2023-06-22T03:04:17;19.90;99.90
3055;DHT22;1537;52.018;8.542;2023-06-22T03:07:41;19.80;99.90
3055;DHT22;1537;52.018;8.542;2023-06-22T03:11:06;19.80;99.90
3055;DHT22;1537;52.018;8.542;2023-06-22T03:14:33;19.70;99.90
3055;DHT22;1537;52.018;8.542;2023-06-22T03:17:59;19.60;99.90
3055;DHT22;1537;52.018;8.542;2023-06-22T03:21:25;19.60;99.90
3055;DHT22;1537;52.018;8.542;2023-06-22T03:24:50;19.60;99.90
3055;DHT22;1537;52.018;8.542;2023-06-22T03:28:14;19.50;99.90
3055;DHT22;1537;52.018;8.542;2023-06-22T03:31:39;19.50;99.90
3055;DHT22;1537;52.018;8.542;2023-06-22T03:35:05;19.50;99.90
3055;DHT22;1537;52.018;8.542;2023-06-22T03:38:32;19.50;99.90
3055;DHT22;1537;52.018;8.542;2023-06-22T03:41:57;19.60;99.90
3055;DHT22;1537;52.018;8.542;2023-06-22T03:45:22;19.70;99.90
3055;DHT22;1537;52.018;8.542;2023-06-22T03:48:47;19.70;99.90
3055;DHT22;1537;52.018;8.542;2023-06-22T03:52:11;19.80;99.90
3055;DHT22;1537;52.018;8.542;2023-06-22T03:55:35;19.70;99.90
3055;DHT22;1537;52.018;8.542;2023-06-22T03:58:59;19.80;99.90
3055;DHT22;1537;52.018;8.542;2023-06-22T04:02:23;19.90;99.90
3055;DHT22;1537;52.018;8.542;2023-06-22T04:05:49;19.90;99.90
3055;DHT22;1537;52.018;8.542;2023-06-22T04:09:13;19.90;99.90
3055;DHT22;1537;52.018;8.542;2023-06-22T04:12:40;19.80;99.90
3055;DHT22;1537;52.018;8.542;2023-06-22T04:16:04;19.90;99.90
3055;DHT22;1537;52.018;8.542;2023-06-22T04:19:28;19.90;99.90
3055;DHT22;1537;52.018;8.542;2023-06-22T04:22:54;19.80;99.90
3055;DHT22;1537;52.018;8.542;2023-06-22T04:26:18;19.90;99.90
3055;DHT22;1537;52.018;8.542;2023-06-22T04:29:43;20.00;99.90
3055;DHT22;1537;52.018;8.542;2023-06-22T04:33:11;20.00;99.90
3055;DHT22;1537;52.018;8.542;2023-06-22T04:36:37;19.90;99.90
3055;DHT22;1537;52.018;8.542;2023-06-22T04:40:03;19.90;99.90
3055;DHT22;1537;52.018;8.542;2023-06-22T04:43:28;20.10;99.90
3055;DHT22;1537;52.018;8.542;2023-06-22T04:46:55;20.30;99.90
3055;DHT22;1537;52.018;8.542;2023-06-22T04:50:23;20.40;99.90
3055;DHT22;1537;52.018;8.542;2023-06-22T04:53:47;20.40;99.90
3055;DHT22;1537;52.018;8.542;2023-06-22T04:57:12;20.30;99.90
3055;DHT22;1537;52.018;8.542;2023-06-22T05:00:37;20.40;99.90
3055;DHT22;1537;52.018;8.542;2023-06-22T05:04:01;20.40;99.90
3055;DHT22;1537;52.018;8.542;2023-06-22T05:07:27;20.50;99.90
3055;DHT22;1537;52.018;8.542;2023-06-22T05:10:51;20.50;99.90
3055;DHT22;1537;52.018;8.542;2023-06-22T05:14:28;20.50;99.90
3055;DHT22;1537;52.018;8.542;2023-06-22T05:17:52;20.50;99.90
3055;DHT22;1537;52.018;8.542;2023-06-22T05:21:16;20.80;99.90
3055;DHT22;1537;52.018;8.542;2023-06-22T05:24:40;20.90;99.90
3055;DHT22;1537;52.018;8.542;2023-06-22T05:28:04;21.10;99.90
3055;DHT22;1537;52.018;8.542;2023-06-22T05:31:36;21.10;99.90
3055;DHT22;1537;52.018;8.542;2023-06-22T05:34:59;21.20;99.90
3055;DHT22;1537;52.018;8.542;2023-06-22T05:38:23;21.40;99.90
3055;DHT22;1537;52.018;8.542;2023-06-22T05:41:47;21.50;99.90
3055;DHT22;1537;52.018;8.542;2023-06-22T05:45:10;21.50;99.90
3055;DHT22;1537;52.018;8.542;2023-06-22T05:48:35;21.50;99.90
3055;DHT22;1537;52.018;8.542;2023-06-22T05:52:00;21.60;99.90
3055;DHT22;1537;52.018;8.542;2023-06-22T05:55:24;21.90;99.90
3055;DHT22;1537;52.018;8.542;2023-06-22T05:58:48;22.60;99.90
3055;DHT22;1537;52.018;8.542;2023-06-22T06:02:11;22.90;99.90
3055;DHT22;1537;52.018;8.542;2023-06-22T06:05:39;23.20;99.90
3055;DHT22;1537;52.018;8.542;2023-06-22T06:09:03;23.40;99.90
3055;DHT22;1537;52.018;8.542;2023-06-22T06:12:27;23.80;99.90
3055;DHT22;1537;52.018;8.542;2023-06-22T06:15:51;24.30;99.90
3055;DHT22;1537;52.018;8.542;2023-06-22T06:19:17;24.30;99.90
3055;DHT22;1537;52.018;8.542;2023-06-22T06:22:42;24.10;99.90
3055;DHT22;1537;52.018;8.542;2023-06-22T06:26:06;24.20;99.90
3055;DHT22;1537;52.018;8.542;2023-06-22T06:29:29;24.10;99.90
3055;DHT22;1537;52.018;8.542;2023-06-22T06:32:53;24.10;99.90
3055;DHT22;1537;52.018;8.542;2023-06-22T06:36:18;24.60;99.90
3055;DHT22;1537;52.018;8.542;2023-06-22T06:39:42;25.00;99.90
3055;DHT22;1537;52.018;8.542;2023-06-22T06:43:06;25.30;99.90
3055;DHT22;1537;52.018;8.542;2023-06-22T06:46:30;25.40;99.90
3055;DHT22;1537;52.018;8.542;2023-06-22T06:49:54;25.30;99.90
3055;DHT22;1537;52.018;8.542;2023-06-22T06:53:18;24.70;99.90
3055;DHT22;1537;52.018;8.542;2023-06-22T06:56:43;24.50;99.90
3055;DHT22;1537;52.018;8.542;2023-06-22T07:00:12;24.50;99.90
3055;DHT22;1537;52.018;8.542;2023-06-22T07:03:36;24.60;99.90
3055;DHT22;1537;52.018;8.542;2023-06-22T07:07:26;24.60;99.90
3055;DHT22;1537;52.018;8.542;2023-06-22T07:10:49;24.30;99.90
3055;DHT22;1537;52.018;8.542;2023-06-22T07:14:14;24.10;99.90
3055;DHT22;1537;52.018;8.542;2023-06-22T07:17:38;23.60;99.90
3055;DHT22;1537;52.018;8.542;2023-06-22T07:21:03;23.60;99.90
3055;DHT22;1537;52.018;8.542;2023-06-22T07:24:28;23.60;99.90
3055;DHT22;1537;52.018;8.542;2023-06-22T07:28:00;23.60;99.90
3055;DHT22;1537;52.018;8.542;2023-06-22T07:31:26;23.70;99.90
3055;DHT22;1537;52.018;8.542;2023-06-22T07:34:50;23.70;99.90
3055;DHT22;1537;52.018;8.542;2023-06-22T07:38:13;23.70;99.90
3055;DHT22;1537;52.018;8.542;2023-06-22T07:41:39;23.70;99.90
3055;DHT22;1537;52.018;8.542;2023-06-22T07:45:04;23.60;99.90
3055;DHT22;1537;52.018;8.542;2023-06-22T07:48:29;23.60;99.90
3055;DHT22;1537;52.018;8.542;2023-06-22T07:51:53;23.50;99.90
3055;DHT22;1537;52.018;8.542;2023-06-22T07:55:41;23.60;99.90
3055;DHT22;1537;52.018;8.542;2023-06-22T07:59:30;23.70;99.90
3055;DHT22;1537;52.018;8.542;2023-06-22T08:03:15;23.70;99.90
3055;DHT22;1537;52.018;8.542;2023-06-22T08:06:58;23.80;99.90
3055;DHT22;1537;52.018;8.542;2023-06-22T08:10:40;23.80;99.90
3055;DHT22;1537;52.018;8.542;2023-06-22T08:14:29;23.70;99.90
3055;DHT22;1537;52.018;8.542;2023-06-22T08:18:12;23.70;99.90
3055;DHT22;1537;52.018;8.542;2023-06-22T08:21:57;24.00;99.90
3055;DHT22;1537;52.018;8.542;2023-06-22T08:25:40;24.00;99.90
3055;DHT22;1537;52.018;8.542;2023-06-22T08:29:22;24.30;99.90
3055;DHT22;1537;52.018;8.542;2023-06-22T08:33:05;24.30;99.90
3055;DHT22;1537;52.018;8.542;2023-06-22T08:36:49;25.00;99.90
3055;DHT22;1537;52.018;8.542;2023-06-22T08:40:40;26.10;99.90
3055;DHT22;1537;52.018;8.542;2023-06-22T08:44:23;26.60;99.90
3055;DHT22;1537;52.018;8.542;2023-06-22T08:48:05;27.10;99.90
3055;DHT22;1537;52.018;8.542;2023-06-22T08:51:49;27.40;99.90
3055;DHT22;1537;52.018;8.542;2023-06-22T08:55:34;27.20;99.90
3055;DHT22;1537;52.018;8.542;2023-06-22T08:59:17;27.20;99.90
3055;DHT22;1537;52.018;8.542;2023-06-22T09:03:02;27.20;99.90
3055;DHT22;1537;52.018;8.542;2023-06-22T09:06:44;27.10;99.90
3055;DHT22;1537;52.018;8.542;2023-06-22T09:10:27;27.00;99.90
3055;DHT22;1537;52.018;8.542;2023-06-22T09:14:10;27.50;99.90
3055;DHT22;1537;52.018;8.542;2023-06-22T09:17:54;28.20;99.90
3055;DHT22;1537;52.018;8.542;2023-06-22T09:21:40;28.40;99.90
3055;DHT22;1537;52.018;8.542;2023-06-22T09:25:23;28.10;99.90
3055;DHT22;1537;52.018;8.542;2023-06-22T09:29:07;28.00;99.90
3055;DHT22;1537;52.018;8.542;2023-06-22T09:32:50;27.40;99.90
3055;DHT22;1537;52.018;8.542;2023-06-22T09:36:37;27.50;99.90
3055;DHT22;1537;52.018;8.542;2023-06-22T09:40:22;27.70;99.90
3055;DHT22;1537;52.018;8.542;2023-06-22T09:44:07;27.30;99.90
3055;DHT22;1537;52.018;8.542;2023-06-22T09:47:52;27.00;99.90
3055;DHT22;1537;52.018;8.542;2023-06-22T09:51:37;27.10;99.90
3055;DHT22;1537;52.018;8.542;2023-06-22T09:55:19;27.00;99.90
3055;DHT22;1537;52.018;8.542;2023-06-22T09:59:01;27.10;99.90
3055;DHT22;1537;52.018;8.542;2023-06-22T10:02:57;28.20;99.90
3055;DHT22;1537;52.018;8.542;2023-06-22T10:06:43;29.40;99.90
3055;DHT22;1537;52.018;8.542;2023-06-22T10:10:26;30.80;99.70
3055;DHT22;1537;52.018;8.542;2023-06-22T10:14:16;32.00;96.00
3055;DHT22;1537;52.018;8.542;2023-06-22T10:18:00;32.10;95.40
3055;DHT22;1537;52.018;8.542;2023-06-22T10:21:47;32.40;93.90
3055;DHT22;1537;52.018;8.542;2023-06-22T10:25:31;32.60;93.30
3055;DHT22;1537;52.018;8.542;2023-06-22T10:29:14;31.90;94.10
3055;DHT22;1537;52.018;8.542;2023-06-22T10:32:59;32.60;92.80
3055;DHT22;1537;52.018;8.542;2023-06-22T10:36:41;31.70;92.90
3055;DHT22;1537;52.018;8.542;2023-06-22T10:40:25;29.90;96.20
3055;DHT22;1537;52.018;8.542;2023-06-22T10:44:07;29.50;97.50
3055;DHT22;1537;52.018;8.542;2023-06-22T10:47:50;29.70;97.60
3055;DHT22;1537;52.018;8.542;2023-06-22T10:51:32;30.90;95.40
3055;DHT22;1537;52.018;8.542;2023-06-22T10:55:16;31.60;94.10
3055;DHT22;1537;52.018;8.542;2023-06-22T10:59:01;30.60;94.80
3055;DHT22;1537;52.018;8.542;2023-06-22T11:02:45;29.30;96.50
3055;DHT22;1537;52.018;8.542;2023-06-22T11:06:28;28.00;98.30
3055;DHT22;1537;52.018;8.542;2023-06-22T11:10:10;28.00;99.50
3055;DHT22;1537;52.018;8.542;2023-06-22T11:13:55;28.40;99.00
3055;DHT22;1537;52.018;8.542;2023-06-22T11:17:41;28.50;97.80
3055;DHT22;1537;52.018;8.542;2023-06-22T11:21:23;28.90;96.70
3055;DHT22;1537;52.018;8.542;2023-06-22T11:25:06;29.20;97.50
3055;DHT22;1537;52.018;8.542;2023-06-22T11:28:49;29.10;96.90
3055;DHT22;1537;52.018;8.542;2023-06-22T11:32:31;29.10;97.10
3055;DHT22;1537;52.018;8.542;2023-06-22T11:36:16;29.10;99.10
3055;DHT22;1537;52.018;8.542;2023-06-22T11:39:59;28.30;99.90
3055;DHT22;1537;52.018;8.542;2023-06-22T11:43:45;28.00;99.90
3055;DHT22;1537;52.018;8.542;2023-06-22T11:47:28;28.00;99.90
3055;DHT22;1537;52.018;8.542;2023-06-22T11:51:11;27.80;99.20
3055;DHT22;1537;52.018;8.542;2023-06-22T11:54:54;28.10;99.70
3055;DHT22;1537;52.018;8.542;2023-06-22T11:58:18;28.20;99.90
3055;DHT22;1537;52.018;8.542;2023-06-22T12:01:42;28.30;99.90
3055;DHT22;1537;52.018;8.542;2023-06-22T12:05:07;28.20;99.90
3055;DHT22;1537;52.018;8.542;2023-06-22T12:08:31;28.30;99.90
3055;DHT22;1537;52.018;8.542;2023-06-22T12:11:55;28.50;99.90
3055;DHT22;1537;52.018;8.542;2023-06-22T12:15:19;28.40;99.80
3055;DHT22;1537;52.018;8.542;2023-06-22T12:18:43;28.00;99.90
3055;DHT22;1537;52.018;8.542;2023-06-22T12:22:07;27.70;99.90
3055;DHT22;1537;52.018;8.542;2023-06-22T12:25:30;27.60;99.90
3055;DHT22;1537;52.018;8.542;2023-06-22T12:28:55;27.30;99.90
3055;DHT22;1537;52.018;8.542;2023-06-22T12:32:19;27.10;99.90
3055;DHT22;1537;52.018;8.542;2023-06-22T12:35:43;26.90;99.90
3055;DHT22;1537;52.018;8.542;2023-06-22T12:39:07;26.60;99.90
3055;DHT22;1537;52.018;8.542;2023-06-22T12:42:31;26.20;99.90
3055;DHT22;1537;52.018;8.542;2023-06-22T12:45:56;26.00;99.90
3055;DHT22;1537;52.018;8.542;2023-06-22T12:49:20;25.90;99.90
3055;DHT22;1537;52.018;8.542;2023-06-22T12:52:43;25.90;99.90
3055;DHT22;1537;52.018;8.542;2023-06-22T12:56:08;25.70;99.90
3055;DHT22;1537;52.018;8.542;2023-06-22T12:59:32;25.50;99.90
3055;DHT22;1537;52.018;8.542;2023-06-22T13:02:57;25.50;99.90
3055;DHT22;1537;52.018;8.542;2023-06-22T13:06:23;25.50;99.90
3055;DHT22;1537;52.018;8.542;2023-06-22T13:09:47;25.30;99.90
3055;DHT22;1537;52.018;8.542;2023-06-22T13:13:14;25.20;99.90
3055;DHT22;1537;52.018;8.542;2023-06-22T13:16:37;24.90;99.90
3055;DHT22;1537;52.018;8.542;2023-06-22T13:20:03;24.70;99.90
3055;DHT22;1537;52.018;8.542;2023-06-22T13:23:28;24.50;99.90
3055;DHT22;1537;52.018;8.542;2023-06-22T13:26:53;24.30;99.90
3055;DHT22;1537;52.018;8.542;2023-06-22T13:30:17;24.20;99.90
3055;DHT22;1537;52.018;8.542;2023-06-22T13:33:41;24.10;99.90
3055;DHT22;1537;52.018;8.542;2023-06-22T13:37:08;24.00;99.90
3055;DHT22;1537;52.018;8.542;2023-06-22T13:40:31;24.10;99.90
3055;DHT22;1537;52.018;8.542;2023-06-22T13:43:55;24.00;99.90
3055;DHT22;1537;52.018;8.542;2023-06-22T13:47:20;23.60;99.90
3055;DHT22;1537;52.018;8.542;2023-06-22T13:50:47;23.50;99.90
3055;DHT22;1537;52.018;8.542;2023-06-22T13:54:12;23.40;99.90
3055;DHT22;1537;52.018;8.542;2023-06-22T13:57:51;23.30;99.90
3055;DHT22;1537;52.018;8.542;2023-06-22T14:01:15;23.20;99.90
3055;DHT22;1537;52.018;8.542;2023-06-22T14:04:39;23.10;99.90
3055;DHT22;1537;52.018;8.542;2023-06-22T14:08:03;22.70;99.90
3055;DHT22;1537;52.018;8.542;2023-06-22T14:11:48;22.20;99.90
3055;DHT22;1537;52.018;8.542;2023-06-22T14:15:12;21.80;99.90
3055;DHT22;1537;52.018;8.542;2023-06-22T14:18:36;21.60;99.90
3055;DHT22;1537;52.018;8.542;2023-06-22T14:22:00;21.40;99.90
3055;DHT22;1537;52.018;8.542;2023-06-22T14:25:23;21.20;99.90
3055;DHT22;1537;52.018;8.542;2023-06-22T14:28:49;21.10;99.90
3055;DHT22;1537;52.018;8.542;2023-06-22T14:32:14;21.10;99.90
3055;DHT22;1537;52.018;8.542;2023-06-22T14:35:40;21.10;99.90
3055;DHT22;1537;52.018;8.542;2023-06-22T14:39:07;21.10;99.90
3055;DHT22;1537;52.018;8.542;2023-06-22T14:42:31;21.00;99.90
3055;DHT22;1537;52.018;8.542;2023-06-22T14:45:56;21.00;99.90
3055;DHT22;1537;52.018;8.542;2023-06-22T14:49:20;21.00;99.90
3055;DHT22;1537;52.018;8.542;2023-06-22T14:52:44;21.10;99.90
3055;DHT22;1537;52.018;8.542;2023-06-22T14:56:08;21.00;99.90
3055;DHT22;1537;52.018;8.542;2023-06-22T14:59:32;20.80;99.90
3055;DHT22;1537;52.018;8.542;2023-06-22T15:02:57;20.90;99.90
3055;DHT22;1537;52.018;8.542;2023-06-22T15:06:22;20.90;99.90
3055;DHT22;1537;52.018;8.542;2023-06-22T15:09:46;20.90;99.90
3055;DHT22;1537;52.018;8.542;2023-06-22T15:13:10;21.00;99.90
3055;DHT22;1537;52.018;8.542;2023-06-22T15:16:35;21.10;99.90
3055;DHT22;1537;52.018;8.542;2023-06-22T15:20:00;21.20;99.90
3055;DHT22;1537;52.018;8.542;2023-06-22T15:23:25;21.40;99.90
3055;DHT22;1537;52.018;8.542;2023-06-22T15:26:51;21.50;99.90
3055;DHT22;1537;52.018;8.542;2023-06-22T15:30:15;21.70;99.90
3055;DHT22;1537;52.018;8.542;2023-06-22T15:33:39;21.90;99.90
3055;DHT22;1537;52.018;8.542;2023-06-22T15:37:04;22.10;99.90
3055;DHT22;1537;52.018;8.542;2023-06-22T15:40:28;22.20;99.90
3055;DHT22;1537;52.018;8.542;2023-06-22T15:43:52;22.40;99.90
3055;DHT22;1537;52.018;8.542;2023-06-22T15:47:16;22.50;99.90
3055;DHT22;1537;52.018;8.542;2023-06-22T15:50:43;22.70;99.90
3055;DHT22;1537;52.018;8.542;2023-06-22T15:54:08;22.80;99.90
3055;DHT22;1537;52.018;8.542;2023-06-22T15:57:32;22.70;99.90
3055;DHT22;1537;52.018;8.542;2023-06-22T16:00:57;22.60;99.90
3055;DHT22;1537;52.018;8.542;2023-06-22T16:04:21;22.60;99.90
3055;DHT22;1537;52.018;8.542;2023-06-22T16:07:44;22.60;99.90
3055;DHT22;1537;52.018;8.542;2023-06-22T16:11:09;22.70;99.90
3055;DHT22;1537;52.018;8.542;2023-06-22T16:14:34;22.60;99.90
3055;DHT22;1537;52.018;8.542;2023-06-22T16:17:58;22.60;99.90
3055;DHT22;1537;52.018;8.542;2023-06-22T16:21:23;22.60;99.90
3055;DHT22;1537;52.018;8.542;2023-06-22T16:24:47;22.60;99.90
3055;DHT22;1537;52.018;8.542;2023-06-22T16:28:15;22.40;99.90
3055;DHT22;1537;52.018;8.542;2023-06-22T16:31:39;22.40;99.90
3055;DHT22;1537;52.018;8.542;2023-06-22T16:35:03;22.10;99.90
3055;DHT22;1537;52.018;8.542;2023-06-22T16:38:27;22.00;99.90
3055;DHT22;1537;52.018;8.542;2023-06-22T16:41:52;22.00;99.90
3055;DHT22;1537;52.018;8.542;2023-06-22T16:45:17;22.00;99.90
3055;DHT22;1537;52.018;8.542;2023-06-22T16:48:41;21.90;99.90
3055;DHT22;1537;52.018;8.542;2023-06-22T16:52:05;21.80;99.90
3055;DHT22;1537;52.018;8.542;2023-06-22T16:55:29;21.70;99.90
3055;DHT22;1537;52.018;8.542;2023-06-22T16:58:55;21.70;99.90
3055;DHT22;1537;52.018;8.542;2023-06-22T17:02:31;21.70;99.90
3055;DHT22;1537;52.018;8.542;2023-06-22T17:05:58;21.70;99.90
3055;DHT22;1537;52.018;8.542;2023-06-22T17:09:25;21.80;99.90
3055;DHT22;1537;52.018;8.542;2023-06-22T17:12:50;21.80;99.90
3055;DHT22;1537;52.018;8.542;2023-06-22T17:16:16;22.00;99.90
3055;DHT22;1537;52.018;8.542;2023-06-22T17:19:41;21.90;99.90
3055;DHT22;1537;52.018;8.542;2023-06-22T17:23:05;21.30;99.90
3055;DHT22;1537;52.018;8.542;2023-06-22T17:26:30;20.80;99.90
3055;DHT22;1537;52.018;8.542;2023-06-22T17:30:04;20.70;99.90
3055;DHT22;1537;52.018;8.542;2023-06-22T17:33:28;20.60;99.90
3055;DHT22;1537;52.018;8.542;2023-06-22T17:36:53;20.40;99.90
3055;DHT22;1537;52.018;8.542;2023-06-22T17:40:19;20.30;99.90
3055;DHT22;1537;52.018;8.542;2023-06-22T17:43:43;20.40;99.90
3055;DHT22;1537;52.018;8.542;2023-06-22T17:47:08;20.50;99.90
3055;DHT22;1537;52.018;8.542;2023-06-22T17:50:32;20.40;99.90
3055;DHT22;1537;52.018;8.542;2023-06-22T17:53:58;20.40;99.90
3055;DHT22;1537;52.018;8.542;2023-06-22T17:57:22;20.30;99.90
3055;DHT22;1537;52.018;8.542;2023-06-22T18:00:47;20.30;99.90
3055;DHT22;1537;52.018;8.542;2023-06-22T18:04:12;20.30;99.90
3055;DHT22;1537;52.018;8.542;2023-06-22T18:07:37;20.20;99.90
3055;DHT22;1537;52.018;8.542;2023-06-22T18:11:03;20.20;99.90
3055;DHT22;1537;52.018;8.542;2023-06-22T18:14:28;20.30;99.90
3055;DHT22;1537;52.018;8.542;2023-06-22T18:17:53;20.30;99.90
3055;DHT22;1537;52.018;8.542;2023-06-22T18:21:17;20.20;99.90
3055;DHT22;1537;52.018;8.542;2023-06-22T18:24:42;20.20;99.90
3055;DHT22;1537;52.018;8.542;2023-06-22T18:28:07;20.20;99.90
3055;DHT22;1537;52.018;8.542;2023-06-22T18:31:34;20.20;99.90
3055;DHT22;1537;52.018;8.542;2023-06-22T18:34:58;20.20;99.90
3055;DHT22;1537;52.018;8.542;2023-06-22T18:38:22;20.10;99.90
3055;DHT22;1537;52.018;8.542;2023-06-22T18:41:50;20.10;99.90
3055;DHT22;1537;52.018;8.542;2023-06-22T18:45:26;20.20;99.90
3055;DHT22;1537;52.018;8.542;2023-06-22T18:48:51;20.20;99.90
3055;DHT22;1537;52.018;8.542;2023-06-22T18:52:16;20.20;99.90
3055;DHT22;1537;52.018;8.542;2023-06-22T18:55:41;20.20;99.90
3055;DHT22;1537;52.018;8.542;2023-06-22T18:59:11;20.20;99.90
3055;DHT22;1537;52.018;8.542;2023-06-22T19:02:42;20.30;99.90
3055;DHT22;1537;52.018;8.542;2023-06-22T19:06:07;20.30;99.90
3055;DHT22;1537;52.018;8.542;2023-06-22T19:09:30;20.20;99.90
3055;DHT22;1537;52.018;8.542;2023-06-22T19:12:55;20.20;99.90
3055;DHT22;1537;52.018;8.542;2023-06-22T19:16:28;20.20;99.90
3055;DHT22;1537;52.018;8.542;2023-06-22T19:19:54;20.20;99.90
3055;DHT22;1537;52.018;8.542;2023-06-22T19:23:23;20.30;99.90
3055;DHT22;1537;52.018;8.542;2023-06-22T19:26:50;20.30;99.90
3055;DHT22;1537;52.018;8.542;2023-06-22T19:30:15;20.30;99.90
3055;DHT22;1537;52.018;8.542;2023-06-22T19:33:40;20.30;99.90
3055;DHT22;1537;52.018;8.542;2023-06-22T19:37:14;20.40;99.90
3055;DHT22;1537;52.018;8.542;2023-06-22T19:40:39;20.40;99.90
3055;DHT22;1537;52.018;8.542;2023-06-22T19:44:03;20.40;99.90
3055;DHT22;1537;52.018;8.542;2023-06-22T19:47:28;20.40;99.90
3055;DHT22;1537;52.018;8.542;2023-06-22T19:50:52;20.40;99.90
3055;DHT22;1537;52.018;8.542;2023-06-22T19:54:17;20.40;99.90
3055;DHT22;1537;52.018;8.542;2023-06-22T19:57:41;20.40;99.90
3055;DHT22;1537;52.018;8.542;2023-06-22T20:01:06;20.40;99.90
3055;DHT22;1537;52.018;8.542;2023-06-22T20:04:30;20.30;99.90
3055;DHT22;1537;52.018;8.542;2023-06-22T20:08:02;20.20;99.90
3055;DHT22;1537;52.018;8.542;2023-06-22T20:11:28;20.20;99.90
3055;DHT22;1537;52.018;8.542;2023-06-22T20:14:54;20.10;99.90
3055;DHT22;1537;52.018;8.542;2023-06-22T20:18:18;20.10;99.90
3055;DHT22;1537;52.018;8.542;2023-06-22T20:21:45;20.00;99.90
3055;DHT22;1537;52.018;8.542;2023-06-22T20:25:09;20.00;99.90
3055;DHT22;1537;52.018;8.542;2023-06-22T20:28:34;20.00;99.90
3055;DHT22;1537;52.018;8.542;2023-06-22T20:32:07;20.00;99.90
3055;DHT22;1537;52.018;8.542;2023-06-22T20:35:38;19.90;99.90
3055;DHT22;1537;52.018;8.542;2023-06-22T20:39:02;19.90;99.90
3055;DHT22;1537;52.018;8.542;2023-06-22T20:42:34;19.90;99.90
3055;DHT22;1537;52.018;8.542;2023-06-22T20:46:16;19.90;99.90
3055;DHT22;1537;52.018;8.542;2023-06-22T20:49:43;19.90;99.90
3055;DHT22;1537;52.018;8.542;2023-06-22T20:53:07;19.80;99.90
3055;DHT22;1537;52.018;8.542;2023-06-22T20:56:42;19.70;99.90
3055;DHT22;1537;52.018;8.542;2023-06-22T21:00:07;19.70;99.90
3055;DHT22;1537;52.018;8.542;2023-06-22T21:03:33;19.60;99.90
3055;DHT22;1537;52.018;8.542;2023-06-22T21:06:57;19.60;99.90
3055;DHT22;1537;52.018;8.542;2023-06-22T21:10:21;19.50;99.90
3055;DHT22;1537;52.018;8.542;2023-06-22T21:13:45;19.50;99.90
3055;DHT22;1537;52.018;8.542;2023-06-22T21:17:09;19.40;99.90
3055;DHT22;1537;52.018;8.542;2023-06-22T21:20:35;19.40;99.90
3055;DHT22;1537;52.018;8.542;2023-06-22T21:23:58;19.40;99.90
3055;DHT22;1537;52.018;8.542;2023-06-22T21:27:24;19.40;99.90
3055;DHT22;1537;52.018;8.542;2023-06-22T21:30:55;19.40;99.90
3055;DHT22;1537;52.018;8.542;2023-06-22T21:34:20;19.50;99.90
3055;DHT22;1537;52.018;8.542;2023-06-22T21:37:48;19.50;99.90
3055;DHT22;1537;52.018;8.542;2023-06-22T21:41:13;19.50;99.90
3055;DHT22;1537;52.018;8.542;2023-06-22T21:44:37;19.40;99.90
3055;DHT22;1537;52.018;8.542;2023-06-22T21:48:01;19.40;99.90
3055;DHT22;1537;52.018;8.542;2023-06-22T21:51:26;19.40;99.90
3055;DHT22;1537;52.018;8.542;2023-06-22T21:54:51;19.50;99.90
3055;DHT22;1537;52.018;8.542;2023-06-22T21:58:14;19.40;99.90
3055;DHT22;1537;52.018;8.542;2023-06-22T22:01:39;19.40;99.90
3055;DHT22;1537;52.018;8.542;2023-06-22T22:05:07;19.40;99.90
3055;DHT22;1537;52.018;8.542;2023-06-22T22:08:31;19.30;99.90
3055;DHT22;1537;52.018;8.542;2023-06-22T22:11:55;19.30;99.90
3055;DHT22;1537;52.018;8.542;2023-06-22T22:15:19;19.20;99.90
3055;DHT22;1537;52.018;8.542;2023-06-22T22:18:43;19.20;99.90
3055;DHT22;1537;52.018;8.542;2023-06-22T22:22:09;19.20;99.90
3055;DHT22;1537;52.018;8.542;2023-06-22T22:25:32;19.20;99.90
3055;DHT22;1537;52.018;8.542;2023-06-22T22:28:58;19.20;99.90
3055;DHT22;1537;52.018;8.542;2023-06-22T22:32:21;19.20;99.90
3055;DHT22;1537;52.018;8.542;2023-06-22T22:35:46;19.20;99.90
3055;DHT22;1537;52.018;8.542;2023-06-22T22:39:09;19.20;99.90
3055;DHT22;1537;52.018;8.542;2023-06-22T22:42:33;19.20;99.90